CLT TRACON Summary / KCLT TAF
CLT TRACON Summary:
Scattered showers are possible this morning, with coverage increasing and thunderstorms likely by early afternoon. Expect VFR conditions outside convection and some patchy MVFR morning fog. Surface winds will be from the southwest to west at 3-8kts and occasionally calm. No significant flight hazards are expected in the TRACON airspace outside of convection.

Updated:7/24/2014 6:12 AM
CLT Terminal Aerodrome Forecast:

FTUS42 KGSP 241100
TAFCLT
TAF
KCLT 241122Z 2412/2512 22004KT P6SM BKN100 BKN250
     FM241400 25005KT P6SM BKN050
     FM241700 26005KT P6SM -SHRA BKN070
      TEMPO 2419/2422 VRB10G17KT 3SM -TSRA BR OVC040CB
     FM250000 32004KT P6SM BKN040
     FM250500 04006KT P6SM BKN090=
CLT TRACON Area Remark:
SCATTERED TS EXPECTED ALL QUADS AFTER 16z.
Convective Gate Forecast / Collaborative Convective Forecast Product / Vertical Wind Profile
Convective Gate Forecast
SIGMETS/ Southeast Radar & Satellite Loops (click on image to enlarge)

Southeast Radar Loop

 



USA.gov is the U.S. government's official web portal to all federal, state and local government web resources and services.